Time;durP1;ratioP1;P1;durP2;ratioP2;P2;SDS_P1;SDS_P2;PMS_P1;PMS_P2;Temp;Humidity;BMP_temperature;BMP_pressure;BME280_temperature;BME280_humidity;BME280_pressure;Samples;Min_cycle;Max_cycle;Signal;HPM_P1;HPM_P2
2022/05/22 00:01:19;;;;;;;2.73;0.80;;;;;;;29.67;58.81;100491.25;5014556;28;70485;-36
2022/05/22 00:03:50;;;;;;;1.55;0.63;;;;;;;29.71;59.00;100495.19;5014172;28;65493;-37
2022/05/22 00:06:21;;;;;;;0.85;0.50;;;;;;;29.67;59.37;100505.63;5014921;28;70587;-39
2022/05/22 00:08:52;;;;;;;1.10;0.50;;;;;;;29.73;59.41;100502.03;5014274;28;66561;-37
2022/05/22 00:11:23;;;;;;;0.70;0.63;;;;;;;29.69;60.43;100500.81;5014641;28;69121;-37
2022/05/22 00:13:55;;;;;;;0.60;0.60;;;;;;;29.73;60.62;100507.44;5012543;28;65648;-38
2022/05/22 00:16:37;;;;;;;2.00;0.70;;;;;;;29.80;60.20;100496.56;5016753;28;69362;-38
2022/05/22 00:19:12;;;;;;;1.50;0.70;;;;;;;29.26;60.91;100415.09;5019871;28;66335;-39
2022/05/22 00:21:44;;;;;;;0.95;0.50;;;;;;;29.82;61.06;100500.69;5020546;28;70109;-39
2022/05/22 00:24:29;;;;;;;5.70;1.02;;;;;;;29.81;62.91;100498.19;5021074;28;66662;-37
2022/05/22 00:27:02;;;;;;;9.82;2.35;;;;;;;29.78;66.45;100485.13;5019322;28;69533;-41
2022/05/22 00:29:37;;;;;;;2.67;2.42;;;;;;;29.80;67.46;100491.16;5021483;28;66350;-39
2022/05/22 00:32:09;;;;;;;2.60;2.28;;;;;;;30.03;67.83;100517.53;5020543;28;69548;-40
2022/05/22 00:34:40;;;;;;;5.50;2.90;;;;;;;30.04;68.83;100513.81;5019892;28;65497;-40
2022/05/22 00:37:12;;;;;;;2.58;2.35;;;;;;;29.93;68.87;100495.63;5005012;28;71325;-40
2022/05/22 00:39:43;;;;;;;3.38;2.28;;;;;;;30.03;65.31;100495.91;5032811;28;66712;-39
2022/05/22 00:42:20;;;;;;;3.33;1.70;;;;;;;30.31;64.85;100521.66;5020597;28;69220;-40
2022/05/22 00:44:53;;;;;;;12.02;2.50;;;;;;;30.38;64.92;100533.25;5021976;28;66390;-39
2022/05/22 00:47:24;;;;;;;3.30;1.85;;;;;;;30.44;64.07;100526.94;5021855;28;70406;-39
2022/05/22 00:50:00;;;;;;;2.28;1.50;;;;;;;30.52;63.75;100532.03;5020828;28;66538;-38
2022/05/22 00:52:39;;;;;;;1.90;1.50;;;;;;;30.17;63.92;100459.56;5017509;28;70463;-39
2022/05/22 00:55:18;;;;;;;1.55;1.45;;;;;;;30.60;63.66;100514.69;5019277;28;66491;-37
2022/05/22 00:57:56;;;;;;;1.90;1.40;;;;;;;30.72;63.72;100535.31;5019176;28;70100;-39
2022/05/22 01:00:32;;;;;;;1.58;1.38;;;;;;;30.24;63.72;100444.09;5019094;28;66720;-38
2022/05/22 01:03:27;;;;;;;1.75;1.63;;;;;;;30.28;63.40;100444.47;5015055;28;69239;-40
2022/05/22 01:06:07;;;;;;;2.42;2.17;;;;;;;30.72;64.44;100510.13;5018948;28;65623;-38
2022/05/22 01:08:39;;;;;;;3.95;1.83;;;;;;;30.91;63.60;100533.44;5018642;28;70562;-39
2022/05/22 01:11:36;;;;;;;11.53;2.43;;;;;;;29.77;67.58;100373.47;5020889;28;65485;-38
2022/05/22 01:14:10;;;;;;;3.47;3.17;;;;;;;30.42;69.44;100483.03;5021540;28;69602;-39
2022/05/22 01:16:43;;;;;;;3.40;3.10;;;;;;;30.67;70.13;100543.34;5019492;28;66315;-38
2022/05/22 01:19:18;;;;;;;4.75;3.22;;;;;;;30.62;70.55;100523.38;5017523;28;70429;-40
2022/05/22 01:21:57;;;;;;;3.67;3.35;;;;;;;30.66;70.27;100533.53;5020486;28;66656;-41
2022/05/22 01:24:29;;;;;;;4.32;3.50;;;;;;;30.65;70.84;100531.88;5020057;28;70005;-40
2022/05/22 01:27:06;;;;;;;4.88;3.22;;;;;;;30.27;71.14;100465.28;5018354;28;66214;-40
2022/05/22 01:29:48;;;;;;;7.40;3.90;;;;;;;30.66;71.76;100532.72;5017810;28;69992;-41
2022/05/22 01:32:21;;;;;;;12.73;4.15;;;;;;;30.69;72.10;100533.06;5021736;28;66466;-40
2022/05/22 01:34:52;;;;;;;9.20;5.25;;;;;;;30.66;71.05;100527.28;5014084;28;69833;-40
2022/05/22 01:37:24;;;;;;;7.95;4.47;;;;;;;30.67;71.83;100528.94;5036470;28;65682;-41
2022/05/22 01:39:55;;;;;;;5.97;3.57;;;;;;;30.60;72.01;100520.91;5008723;28;69596;-37
2022/05/22 01:42:28;;;;;;;4.10;3.40;;;;;;;30.68;72.25;100534.16;4985378;28;65354;-37
2022/05/22 01:45:03;;;;;;;5.93;3.65;;;;;;;30.72;71.80;100534.50;4984791;28;70390;-39
2022/05/22 01:47:39;;;;;;;7.43;2.78;;;;;;;30.73;72.19;100534.28;5011535;28;66507;-40
2022/05/22 01:50:12;;;;;;;9.45;3.17;;;;;;;30.75;72.19;100528.63;5031159;28;70191;-39
2022/05/22 01:56:30;;;;;;;4.55;2.55;;;;;;;30.79;72.27;100537.97;5032979;28;70059;-37
2022/05/22 01:59:05;;;;;;;8.57;2.33;;;;;;;30.76;72.26;100521.31;5016738;28;65309;-40
2022/05/22 02:01:52;;;;;;;9.50;3.40;;;;;;;30.93;72.06;100538.66;5000521;28;69177;-40
2022/05/22 02:04:24;;;;;;;7.75;3.35;;;;;;;30.96;71.50;100538.19;5032810;28;65782;-39
2022/05/22 02:09:50;;;;;;;3.55;3.25;;;;;;;30.92;71.06;100521.59;5017672;28;66173;-40
2022/05/22 02:12:23;;;;;;;4.15;3.13;;;;;;;30.97;71.07;100520.06;5001044;28;70067;-39
2022/05/22 02:14:54;;;;;;;7.83;3.67;;;;;;;31.02;70.61;100526.44;5011852;28;66454;-38
2022/05/22 02:17:25;;;;;;;3.33;3.03;;;;;;;31.04;70.85;100518.91;5017503;28;70344;-40
2022/05/22 02:19:57;;;;;;;3.70;2.47;;;;;;;31.08;71.20;100520.09;5016249;28;66097;-38
2022/05/22 02:22:50;;;;;;;5.35;2.70;;;;;;;31.11;70.95;100514.22;5034223;28;69823;-43
2022/05/22 02:25:24;;;;;;;3.20;2.22;;;;;;;31.15;71.33;100503.75;4999517;28;65064;-38
2022/05/22 02:28:06;;;;;;;3.75;2.50;;;;;;;31.21;70.84;100526.38;4995307;28;68639;-37
2022/05/22 02:30:44;;;;;;;5.22;2.63;;;;;;;30.71;70.84;100433.50;5016584;28;65438;-39
2022/05/22 02:33:16;;;;;;;5.05;2.35;;;;;;;31.27;70.17;100523.56;5015422;28;69909;-39
2022/05/22 02:36:00;;;;;;;4.20;2.47;;;;;;;31.30;70.83;100517.69;5012173;28;66275;-39
2022/05/22 02:38:36;;;;;;;3.28;1.73;;;;;;;31.35;70.51;100519.72;5033511;28;70229;-41
2022/05/22 02:41:16;;;;;;;2.15;1.85;;;;;;;31.35;70.79;100519.72;5014677;28;65139;-39
2022/05/22 02:43:54;;;;;;;3.72;1.98;;;;;;;31.36;70.71;100510.53;5018875;28;70488;-39
2022/05/22 02:46:26;;;;;;;2.60;1.75;;;;;;;31.38;70.94;100501.13;5016117;28;66251;-38
2022/05/22 02:48:58;;;;;;;2.63;1.52;;;;;;;31.59;69.52;100510.59;5016159;28;69242;-38
2022/05/22 02:51:38;;;;;;;4.30;1.33;;;;;;;31.73;68.53;100494.94;5017955;28;66532;-38
2022/05/22 02:54:10;;;;;;;1.90;1.37;;;;;;;31.79;68.35;100482.31;5018635;28;70123;-39
2022/05/22 02:56:50;;;;;;;2.92;1.52;;;;;;;31.85;68.18;100475.13;5021031;28;65703;-38
2022/05/22 02:59:39;;;;;;;3.97;1.75;;;;;;;31.96;67.50;100467.00;5019855;28;70287;-39
2022/05/22 03:02:29;;;;;;;2.38;1.60;;;;;;;32.08;67.08;100474.28;5018956;28;66201;-39
2022/05/22 03:05:00;;;;;;;2.77;1.67;;;;;;;32.09;66.97;100471.31;5019300;28;70264;-40
2022/05/22 03:07:34;;;;;;;1.90;1.60;;;;;;;32.16;66.51;100471.22;5019324;28;65294;-39
2022/05/22 03:10:24;;;;;;;1.63;1.50;;;;;;;32.25;66.15;100475.19;5018447;28;70255;-39
2022/05/22 03:12:55;;;;;;;3.37;1.40;;;;;;;32.30;66.01;100477.19;5020761;28;66613;-38
2022/05/22 03:15:34;;;;;;;3.80;1.73;;;;;;;32.32;65.66;100475.91;5017540;28;69677;-39
2022/05/22 03:18:06;;;;;;;2.38;1.48;;;;;;;32.31;65.56;100482.38;4999570;28;66465;-39
2022/05/22 03:20:38;;;;;;;2.72;1.23;;;;;;;32.39;64.96;100486.59;5000956;28;69139;-37
2022/05/22 03:23:09;;;;;;;1.92;1.35;;;;;;;32.40;65.18;100478.25;5015583;28;66497;-39
2022/05/22 03:25:44;;;;;;;5.22;1.30;;;;;;;32.43;64.92;100472.31;4999066;28;70678;-38
2022/05/22 03:28:17;;;;;;;2.42;1.40;;;;;;;32.48;64.64;100468.91;4999011;28;66393;-40
2022/05/22 03:30:48;;;;;;;2.30;1.30;;;;;;;32.49;64.33;100452.38;4997901;28;69479;-38
2022/05/22 03:33:20;;;;;;;2.15;1.05;;;;;;;32.51;64.64;100456.75;4996773;28;65456;-38
2022/05/22 03:35:54;;;;;;;2.40;1.27;;;;;;;32.54;64.25;100456.25;5013382;28;69506;-39
2022/05/22 03:38:25;;;;;;;3.10;1.20;;;;;;;32.55;64.23;100441.63;5000177;28;65968;-39
2022/05/22 03:41:04;;;;;;;5.40;1.50;;;;;;;32.51;63.92;100440.44;4998274;28;70359;-39
2022/05/22 03:43:40;;;;;;;2.88;1.10;;;;;;;32.61;64.01;100446.09;4998128;28;66777;-39
2022/05/22 03:46:28;;;;;;;5.82;1.52;;;;;;;32.44;64.68;100435.13;5006270;28;69415;-40
2022/05/22 03:49:00;;;;;;;;;;;;;;;32.01;65.47;100429.13;5016425;28;66278;-39
2022/05/22 03:51:42;;;;;;;6.97;2.15;;;;;;;32.21;64.56;100442.28;5022309;28;70347;-39
2022/05/22 03:54:16;;;;;;;5.35;2.00;;;;;;;32.21;64.38;100425.19;5017336;28;66210;-39
2022/05/22 03:56:50;;;;;;;3.10;1.65;;;;;;;32.20;65.27;100434.38;5019706;28;69589;-41
2022/05/22 03:59:25;;;;;;;5.22;1.90;;;;;;;32.16;65.49;100422.38;5010437;28;65726;-41
2022/05/22 04:01:56;;;;;;;5.03;2.05;;;;;;;32.11;65.38;100414.13;5036318;28;70375;-42
2022/05/22 04:04:28;;;;;;;6.50;2.47;;;;;;;32.13;65.38;100412.81;5019849;28;66447;-39
2022/05/22 04:07:04;;;;;;;10.70;2.63;;;;;;;32.17;65.40;100419.41;5019559;28;70233;-40
2022/05/22 04:09:36;;;;;;;5.85;3.42;;;;;;;32.12;65.74;100422.00;5007653;28;66181;-41
2022/05/22 04:12:43;;;;;;;9.45;4.35;;;;;;;32.19;65.06;100421.88;5003735;28;70017;-45
2022/05/22 04:15:20;;;;;;;9.75;3.53;;;;;;;32.33;64.49;100434.09;5005415;28;65028;-41
2022/05/22 04:17:55;;;;;;;6.43;4.10;;;;;;;32.42;64.56;100420.97;5020559;28;70587;-39
2022/05/22 04:20:31;;;;;;;7.80;3.45;;;;;;;32.48;64.15;100409.16;5022245;28;65917;-40
2022/05/22 04:26:15;;;;;;;4.38;2.72;;;;;;;32.61;63.40;100405.34;5013379;28;65518;-39
2022/05/22 04:28:46;;;;;;;5.40;2.78;;;;;;;32.66;63.27;100400.03;5003372;28;70155;-39
2022/05/22 04:31:25;;;;;;;3.95;2.38;;;;;;;32.72;63.43;100404.47;5007282;28;65250;-38
2022/05/22 04:34:12;;;;;;;3.60;2.08;;;;;;;32.73;63.06;100392.53;5017146;28;70381;-38
2022/05/22 04:36:43;;;;;;;2.97;1.83;;;;;;;32.82;63.00;100382.06;5002124;28;66213;-38
2022/05/22 04:39:32;;;;;;;3.47;1.60;;;;;;;32.86;62.77;100384.06;5002048;28;69503;-38
2022/05/22 04:42:06;;;;;;;2.28;1.67;;;;;;;32.90;62.67;100363.50;5000978;28;66110;-39
2022/05/22 04:44:37;;;;;;;2.40;1.70;;;;;;;32.91;62.46;100359.72;5015711;28;70510;-38
2022/05/22 04:47:24;;;;;;;2.63;1.23;;;;;;;32.98;62.26;100369.59;5018694;28;65582;-38
2022/05/22 04:50:25;;;;;;;2.08;1.33;;;;;;;32.94;62.10;100353.78;5014158;28;69648;-38
2022/05/22 04:53:18;;;;;;;1.63;1.20;;;;;;;32.94;61.90;100351.06;5017249;28;65401;-39
2022/05/22 04:56:01;;;;;;;4.03;1.65;;;;;;;33.06;62.19;100374.63;5019188;28;69342;-39
2022/05/22 04:58:39;;;;;;;2.72;1.45;;;;;;;32.98;62.21;100347.84;5000751;28;65728;-38
2022/05/22 05:01:14;;;;;;;4.80;1.60;;;;;;;33.12;62.00;100349.19;5018133;28;70560;-38
2022/05/22 05:03:54;;;;;;;5.22;2.17;;;;;;;33.10;62.05;100351.34;5015517;28;65488;-40
2022/05/22 05:06:30;;;;;;;2.33;1.50;;;;;;;32.96;62.09;100339.13;5012920;28;70399;-38
2022/05/22 05:09:04;;;;;;;3.35;1.60;;;;;;;32.76;61.42;100345.03;5014788;28;66198;-39
2022/05/22 05:11:36;;;;;;;8.55;1.25;;;;;;;32.47;59.73;100332.34;5002147;28;70556;-38
2022/05/22 05:14:09;;;;;;;2.10;1.10;;;;;;;32.30;58.57;100320.59;5018386;28;65485;-39
2022/05/22 05:16:40;;;;;;;2.23;1.00;;;;;;;32.15;58.24;100309.44;5016588;28;69609;-38
2022/05/22 05:19:15;;;;;;;3.15;0.90;;;;;;;32.00;56.74;100293.72;5018825;28;66511;-39
2022/05/22 05:21:50;;;;;;;2.05;0.80;;;;;;;31.89;56.49;100292.66;5019628;28;70128;-38
2022/05/22 05:24:22;;;;;;;2.33;1.23;;;;;;;31.84;57.88;100284.41;4999059;28;65199;-38
2022/05/22 05:26:55;;;;;;;1.90;1.08;;;;;;;31.80;56.61;100277.84;5001228;28;69502;-38
2022/05/22 05:29:59;;;;;;;1.65;0.90;;;;;;;31.67;55.81;100278.09;5004209;28;66072;-37
2022/05/22 05:32:32;;;;;;;4.38;1.15;;;;;;;31.60;56.03;100273.66;5018016;28;70555;-38
2022/05/22 05:35:09;;;;;;;2.88;1.02;;;;;;;31.09;55.98;100182.28;5016177;28;66663;-37
2022/05/22 05:37:40;;;;;;;3.42;1.02;;;;;;;31.48;56.07;100243.06;5019485;28;70183;-38
2022/05/22 05:40:17;;;;;;;4.80;0.60;;;;;;;31.54;55.28;100252.94;5017684;28;67233;-37
2022/05/22 05:42:49;;;;;;;3.35;0.80;;;;;;;31.36;54.72;100244.94;5018836;28;69995;-38
2022/05/22 05:45:22;;;;;;;3.90;0.90;;;;;;;31.44;54.11;100263.56;5015826;28;66189;-38
2022/05/22 05:47:57;;;;;;;3.38;0.80;;;;;;;31.43;53.61;100272.75;5015727;28;70343;-39
2022/05/22 05:50:42;;;;;;;2.08;0.80;;;;;;;31.30;53.19;100248.59;5017411;28;65589;-38
2022/05/22 05:53:39;;;;;;;1.77;0.90;;;;;;;31.32;53.71;100250.00;5017740;28;69532;-38
2022/05/22 05:56:28;;;;;;;7.75;1.00;;;;;;;31.25;52.75;100248.47;5020474;28;65754;-39
2022/05/22 05:59:11;;;;;;;2.63;0.70;;;;;;;31.25;52.01;100248.47;5017869;28;69354;-38
2022/05/22 06:01:54;;;;;;;2.08;0.93;;;;;;;31.14;51.86;100237.41;5017370;28;66589;-38
2022/05/22 06:04:25;;;;;;;3.72;0.75;;;;;;;31.15;51.68;100238.25;5017766;28;69881;-39
2022/05/22 06:06:56;;;;;;;1.23;0.60;;;;;;;31.16;50.88;100242.59;5016023;28;65903;-38
2022/05/22 06:09:27;;;;;;;1.20;0.60;;;;;;;31.11;51.16;100254.13;5020271;28;69813;-38
2022/05/22 06:12:15;;;;;;;2.50;1.02;;;;;;;31.16;52.99;100273.22;5015367;28;67189;-39
2022/05/22 06:15:03;;;;;;;1.77;0.60;;;;;;;31.12;53.13;100282.88;5013666;28;69269;-37
2022/05/22 06:17:46;;;;;;;2.97;0.93;;;;;;;31.11;52.76;100283.94;5014883;28;66408;-36
2022/05/22 06:20:25;;;;;;;2.63;1.00;;;;;;;31.13;52.98;100289.13;5013885;28;70407;-38
2022/05/22 06:22:58;;;;;;;1.20;0.68;;;;;;;31.14;53.13;100297.00;5014015;28;64897;-37
2022/05/22 06:25:47;;;;;;;1.73;0.70;;;;;;;31.09;53.28;100277.09;5016869;28;69996;-35
2022/05/22 06:28:37;;;;;;;1.10;0.70;;;;;;;31.10;52.78;100285.00;5018900;28;66269;-36
2022/05/22 06:31:13;;;;;;;1.30;0.80;;;;;;;31.08;52.72;100270.88;5018223;28;70138;-36
2022/05/22 06:33:57;;;;;;;1.40;0.82;;;;;;;31.07;52.00;100265.69;5019442;28;66760;-37
2022/05/22 06:36:47;;;;;;;2.35;0.70;;;;;;;31.00;52.13;100259.56;5018687;28;69349;-36
2022/05/22 06:39:56;;;;;;;1.50;0.75;;;;;;;30.98;52.22;100270.66;4950408;28;65996;-37
2022/05/22 06:42:37;;;;;;;1.33;0.88;;;;;;;30.43;51.79;100192.44;4978266;28;69976;-36
2022/05/22 06:45:27;;;;;;;1.70;0.90;;;;;;;30.97;51.83;100279.81;5006393;28;66778;-38
2022/05/22 06:48:21;;;;;;;1.35;0.80;;;;;;;30.99;51.53;100276.88;4992326;28;69216;-38
2022/05/22 06:51:11;;;;;;;1.60;0.80;;;;;;;30.97;51.47;100268.16;5000619;28;66109;-37
2022/05/22 06:54:21;;;;;;;0.98;0.60;;;;;;;30.76;51.13;100235.16;4958352;28;69996;-37
2022/05/22 06:57:05;;;;;;;1.35;0.80;;;;;;;30.84;51.09;100245.69;4957157;28;67062;-38
2022/05/22 06:59:47;;;;;;;;;;;;;;;30.49;51.63;100240.19;4987918;28;70162;-38
2022/05/22 07:02:39;;;;;;;1.27;0.68;;;;;;;30.77;51.00;100249.53;4998226;28;65837;-36
2022/05/22 07:05:36;;;;;;;1.30;0.70;;;;;;;30.75;50.88;100221.84;5013318;28;69325;-40
2022/05/22 07:08:37;;;;;;;3.63;0.80;;;;;;;30.73;50.71;100220.22;5012280;28;65706;-39
2022/05/22 07:11:49;;;;;;;1.73;0.90;;;;;;;30.65;50.51;100208.91;5018541;28;69704;-37
2022/05/22 07:14:40;;;;;;;0.93;0.70;;;;;;;30.61;50.39;100213.13;5005715;28;66614;-38
2022/05/22 07:17:46;;;;;;;2.03;0.70;;;;;;;30.65;50.01;100222.47;5017143;28;70107;-38
2022/05/22 07:20:34;;;;;;;1.02;0.70;;;;;;;30.60;49.58;100217.72;5000499;28;65898;-38
2022/05/22 07:23:14;;;;;;;1.23;0.60;;;;;;;30.62;49.66;100222.91;5018369;28;70287;-38
2022/05/22 07:26:24;;;;;;;1.65;0.73;;;;;;;30.58;49.51;100232.56;5018523;28;66342;-36
2022/05/22 07:29:10;;;;;;;5.63;0.88;;;;;;;30.58;49.82;100233.38;5015582;28;68904;-38
2022/05/22 07:31:59;;;;;;;1.05;0.63;;;;;;;30.54;49.76;100232.22;5015921;28;64588;-38
2022/05/22 07:34:48;;;;;;;1.15;0.80;;;;;;;30.48;51.75;100233.16;5016179;28;70176;-37
2022/05/22 07:37:41;;;;;;;3.70;1.20;;;;;;;30.46;51.34;100236.06;5018917;28;66791;-37
2022/05/22 07:40:53;;;;;;;1.02;0.77;;;;;;;30.43;51.53;100241.13;4976765;28;69884;-37
2022/05/22 07:43:49;;;;;;;3.47;1.20;;;;;;;30.36;51.34;100235.00;4977180;28;66705;-37
2022/05/22 07:46:43;;;;;;;1.35;0.80;;;;;;;30.30;50.70;100247.56;5003364;28;70285;-39
2022/05/22 07:52:44;;;;;;;1.23;0.77;;;;;;;29.83;49.99;100204.94;5015095;28;69551;-36
2022/05/22 07:55:45;;;;;;;1.20;0.60;;;;;;;30.16;50.23;100275.84;5015519;28;65913;-36
2022/05/22 07:58:43;;;;;;;0.98;0.50;;;;;;;30.21;50.26;100282.22;5005617;28;70627;-35
2022/05/22 08:01:41;;;;;;;0.85;0.60;;;;;;;30.16;50.24;100287.47;5002400;28;66854;-35
2022/05/22 08:04:33;;;;;;;3.42;0.50;;;;;;;30.06;50.16;100270.97;5015851;28;69650;-38
2022/05/22 08:07:11;;;;;;;0.63;0.40;;;;;;;30.12;49.99;100277.38;5016264;28;66331;-36
2022/05/22 08:09:53;;;;;;;0.70;0.40;;;;;;;30.07;50.03;100269.94;5015863;28;69961;-35
2022/05/22 08:12:26;;;;;;;4.07;0.45;;;;;;;30.06;50.45;100268.25;5017717;28;66604;-36
2022/05/22 08:15:12;;;;;;;0.75;0.40;;;;;;;29.48;50.25;100185.03;5029794;28;70211;-36
2022/05/22 08:17:44;;;;;;;1.45;0.43;;;;;;;29.93;49.95;100258.47;5016962;28;65939;-36
2022/05/22 08:20:20;;;;;;;0.63;0.40;;;;;;;29.93;49.81;100257.66;5014154;28;69887;-37
2022/05/22 08:23:14;;;;;;;3.90;0.50;;;;;;;29.92;49.30;100250.56;5016680;28;66205;-38
2022/05/22 08:25:50;;;;;;;0.52;0.40;;;;;;;29.89;49.73;100241.03;5012233;28;70835;-36
2022/05/22 08:28:24;;;;;;;0.65;0.47;;;;;;;29.87;49.57;100236.94;5014829;28;66659;-37
2022/05/22 08:30:55;;;;;;;1.15;0.90;;;;;;;29.76;51.34;100209.63;5012760;28;70125;-41
2022/05/22 08:33:27;;;;;;;1.35;0.90;;;;;;;29.85;53.81;100226.34;5012387;28;66200;-38
2022/05/22 08:36:00;;;;;;;3.83;0.98;;;;;;;29.86;53.77;100219.06;5016659;28;70284;-38
2022/05/22 08:38:31;;;;;;;3.57;1.17;;;;;;;29.80;54.77;100201.88;5018127;28;65467;-37
2022/05/22 08:41:19;;;;;;;1.80;1.08;;;;;;;29.82;53.90;100208.69;5019636;28;70276;-37
2022/05/22 08:44:00;;;;;;;8.63;0.85;;;;;;;29.84;52.98;100212.00;5017498;28;66079;-37
2022/05/22 08:47:01;;;;;;;5.43;1.15;;;;;;;29.78;56.13;100212.94;5018403;28;70385;-38
2022/05/22 08:49:51;;;;;;;2.63;2.30;;;;;;;29.03;61.17;100063.78;5019625;28;66280;-38
2022/05/22 08:52:31;;;;;;;3.08;2.30;;;;;;;30.21;62.78;100222.69;5021379;28;69678;-39
2022/05/22 08:55:15;;;;;;;4.10;2.10;;;;;;;30.28;64.72;100212.66;5001774;28;65281;-39
2022/05/22 09:01:04;;;;;;;4.82;3.00;;;;;;;30.38;65.17;100208.53;5018219;28;66885;-40
2022/05/22 09:04:16;;;;;;;4.55;2.60;;;;;;;30.45;65.87;100214.66;5021724;28;70557;-40
2022/05/22 09:07:20;;;;;;;2.67;2.47;;;;;;;30.55;66.65;100225.72;5016574;28;65545;-39
2022/05/22 09:10:02;;;;;;;3.13;2.38;;;;;;;29.73;66.20;100072.22;5015769;28;69965;-40
2022/05/22 09:12:52;;;;;;;2.92;2.67;;;;;;;30.68;66.47;100230.91;5022578;28;66540;-39
2022/05/22 09:16:13;;;;;;;4.88;2.28;;;;;;;30.73;66.96;100246.47;5020101;28;69526;-39
2022/05/22 09:18:55;;;;;;;2.67;2.47;;;;;;;30.83;67.11;100251.31;5000984;28;64575;-43
2022/05/22 09:21:36;;;;;;;2.90;2.67;;;;;;;30.82;67.86;100268.63;5021723;28;70320;-38
2022/05/22 09:24:39;;;;;;;3.65;3.13;;;;;;;30.90;68.29;100269.09;5021722;28;66499;-39
2022/05/22 09:27:26;;;;;;;3.80;3.50;;;;;;;30.84;68.79;100261.09;5014065;28;69552;-39
2022/05/22 09:30:03;;;;;;;3.75;2.78;;;;;;;30.99;69.27;100280.41;5021577;28;66463;-39
2022/05/22 09:33:02;;;;;;;3.80;3.50;;;;;;;30.91;69.88;100270.75;5021415;28;70262;-39
2022/05/22 09:35:57;;;;;;;6.07;3.33;;;;;;;31.01;69.16;100278.31;5020067;28;65613;-39
2022/05/22 09:38:45;;;;;;;3.40;3.10;;;;;;;30.54;69.61;100207.84;5022318;28;69601;-41
2022/05/22 09:41:55;;;;;;;3.17;2.88;;;;;;;30.96;70.03;100291.72;5021300;28;65575;-38
2022/05/22 09:45:03;;;;;;;3.08;2.70;;;;;;;30.95;70.27;100281.94;5017539;28;70055;-38
2022/05/22 09:47:59;;;;;;;3.95;3.50;;;;;;;31.05;69.78;100290.31;5015466;28;65774;-39
2022/05/22 09:50:59;;;;;;;5.20;4.20;;;;;;;31.07;70.14;100284.66;5018838;28;70072;-39
2022/05/22 09:54:04;;;;;;;6.15;4.20;;;;;;;30.60;70.27;100236.69;5017951;28;65759;-38
2022/05/22 09:57:04;;;;;;;11.10;3.90;;;;;;;31.06;70.64;100294.66;5019024;28;70111;-39
2022/05/22 10:00:01;;;;;;;10.10;4.65;;;;;;;31.02;71.54;100298.91;5018985;28;65637;-44
2022/05/22 10:02:59;;;;;;;6.78;5.07;;;;;;;30.99;72.49;100295.84;5021758;28;70287;-45
2022/05/22 10:05:52;;;;;;;9.48;5.25;;;;;;;31.00;72.02;100301.00;5021058;28;66186;-46
2022/05/22 10:08:35;;;;;;;13.35;5.85;;;;;;;31.01;73.02;100299.97;5021633;28;70208;-42
2022/05/22 10:11:21;;;;;;;10.35;5.70;;;;;;;30.34;73.16;100204.63;5021070;28;66059;-47
2022/05/22 10:14:21;;;;;;;12.18;5.30;;;;;;;30.32;73.41;100228.41;5018466;28;70289;-45
2022/05/22 10:17:29;;;;;;;11.63;6.00;;;;;;;30.77;74.22;100322.63;5004045;28;65942;-47
2022/05/22 10:20:38;;;;;;;11.75;6.07;;;;;;;30.49;74.77;100283.50;5019256;28;70251;-41
2022/05/22 10:23:27;;;;;;;7.65;4.30;;;;;;;30.93;74.97;100324.69;5019477;28;66075;-44
2022/05/22 10:25:58;;;;;;;8.30;4.78;;;;;;;31.01;74.54;100335.19;5016875;28;70314;-41
2022/05/22 10:28:55;;;;;;;7.07;5.80;;;;;;;30.92;75.11;100332.00;5019279;28;65886;-44
2022/05/22 10:31:46;;;;;;;4.88;3.97;;;;;;;30.50;74.79;100263.47;5013211;28;69161;-41
2022/05/22 10:34:51;;;;;;;4.63;4.03;;;;;;;30.97;74.67;100349.41;5016215;28;66478;-45
2022/05/22 10:37:25;;;;;;;7.82;3.47;;;;;;;31.28;72.29;100364.50;5018596;28;70261;-43
2022/05/22 10:39:57;;;;;;;3.88;3.42;;;;;;;31.32;71.32;100360.28;5020690;28;66147;-45
2022/05/22 10:42:47;;;;;;;3.35;2.80;;;;;;;31.41;70.95;100369.72;5018051;28;70287;-45
2022/05/22 10:45:37;;;;;;;2.65;2.40;;;;;;;30.95;71.48;100298.19;5014572;28;65394;-45
2022/05/22 10:48:10;;;;;;;3.40;2.70;;;;;;;31.54;70.68;100372.22;5015382;28;69726;-44
2022/05/22 10:50:54;;;;;;;2.42;2.22;;;;;;;31.47;71.14;100366.06;5016159;28;66449;-44
2022/05/22 10:53:31;;;;;;;2.85;2.50;;;;;;;31.64;70.69;100398.72;5014013;28;69271;-44
2022/05/22 10:56:16;;;;;;;2.70;2.50;;;;;;;31.60;69.97;100373.97;5016013;28;66936;-44
2022/05/22 10:59:00;;;;;;;2.95;2.65;;;;;;;31.14;70.78;100313.25;5012302;28;70467;-44
2022/05/22 11:01:37;;;;;;;2.65;2.45;;;;;;;31.74;69.88;100404.38;5015946;28;66259;-44
2022/05/22 11:04:16;;;;;;;3.00;2.80;;;;;;;31.76;70.54;100412.25;5014320;28;69853;-45
2022/05/22 11:07:02;;;;;;;2.90;2.70;;;;;;;31.31;69.94;100343.16;5013420;28;66562;-44
2022/05/22 11:09:48;;;;;;;2.78;2.58;;;;;;;31.21;71.00;100326.69;5012509;28;70344;-45
2022/05/22 11:12:22;;;;;;;3.08;2.85;;;;;;;31.33;69.80;100342.94;5014792;28;65262;-44
2022/05/22 11:15:16;;;;;;;3.05;2.78;;;;;;;31.73;70.91;100419.00;5016721;28;70136;-45
2022/05/22 11:17:48;;;;;;;2.17;1.98;;;;;;;31.82;69.63;100416.75;5018578;28;66362;-44
2022/05/22 11:20:24;;;;;;;3.00;2.42;;;;;;;31.86;69.96;100425.22;5017979;28;70032;-45
2022/05/22 11:23:01;;;;;;;2.67;2.42;;;;;;;31.86;70.14;100428.75;5019217;28;66298;-45
2022/05/22 11:25:58;;;;;;;2.92;2.40;;;;;;;31.87;69.95;100427.69;5012192;28;70359;-45
2022/05/22 11:28:53;;;;;;;3.40;2.22;;;;;;;31.86;70.32;100434.19;5013408;28;64845;-46
2022/05/22 11:31:33;;;;;;;2.90;2.20;;;;;;;31.81;70.50;100434.06;5017883;28;70185;-45
2022/05/22 11:34:25;;;;;;;2.45;2.25;;;;;;;31.86;70.26;100442.31;5017533;28;65633;-47
2022/05/22 11:37:27;;;;;;;6.20;4.60;;;;;;;31.72;71.29;100443.63;5016722;28;70503;-46
2022/05/22 11:40:23;;;;;;;7.57;5.82;;;;;;;31.65;72.59;100448.31;5019039;28;65862;-44
2022/05/22 11:43:27;;;;;;;16.05;6.00;;;;;;;31.27;73.92;100446.88;5016756;28;69559;-46
2022/05/22 11:46:20;;;;;;;7.90;6.10;;;;;;;31.12;75.05;100450.00;5015666;28;66611;-43
2022/05/22 11:49:19;;;;;;;7.68;6.93;;;;;;;30.90;75.66;100463.28;5019305;28;70584;-45
2022/05/22 11:55:29;;;;;;;13.90;7.55;;;;;;;30.66;76.89;100476.69;5008134;28;70255;-46
2022/05/22 11:58:20;;;;;;;11.52;10.18;;;;;;;30.66;77.00;100479.38;5019936;28;65512;-46
2022/05/22 12:01:09;;;;;;;15.30;9.15;;;;;;;30.62;77.30;100475.50;5016382;28;70064;-45
2022/05/22 12:04:06;;;;;;;12.48;10.77;;;;;;;30.10;76.89;100410.13;5013156;28;66416;-45
2022/05/22 12:07:07;;;;;;;20.42;11.60;;;;;;;30.53;77.19;100474.13;5016114;28;70382;-44
2022/05/22 12:10:02;;;;;;;16.13;11.68;;;;;;;30.48;77.58;100479.44;5015935;28;66372;-45
2022/05/22 12:12:43;;;;;;;13.18;11.10;;;;;;;30.56;78.29;100481.81;5011475;28;69296;-42
2022/05/22 12:15:25;;;;;;;16.90;13.27;;;;;;;30.55;77.82;100482.88;4999572;28;66224;-45
2022/05/22 12:18:03;;;;;;;22.30;12.18;;;;;;;30.61;78.08;100476.53;5001140;28;70585;-43
2022/05/22 12:20:34;;;;;;;16.30;10.50;;;;;;;30.68;78.82;100477.28;5017842;28;65395;-42
2022/05/22 12:23:16;;;;;;;14.82;9.38;;;;;;;30.56;77.74;100456.63;5017803;28;70307;-42
2022/05/22 12:26:07;;;;;;;20.77;8.50;;;;;;;30.06;75.10;100403.50;5021184;28;66735;-41
2022/05/22 12:28:51;;;;;;;11.80;7.15;;;;;;;30.44;73.02;100491.75;5021584;28;69959;-41
2022/05/22 12:31:31;;;;;;;7.13;6.07;;;;;;;30.36;71.41;100462.28;5018958;28;66324;-43
2022/05/22 12:34:09;;;;;;;7.85;4.90;;;;;;;30.41;69.69;100475.97;5016631;28;69768;-41
2022/05/22 12:36:45;;;;;;;5.93;4.40;;;;;;;30.14;68.56;100460.00;5019783;28;66369;-42
2022/05/22 12:39:18;;;;;;;12.85;4.50;;;;;;;29.82;67.33;100422.28;5021472;28;69095;-45
2022/05/22 12:41:58;;;;;;;10.35;3.63;;;;;;;30.35;66.55;100488.53;5022921;28;66360;-42
2022/05/22 12:44:30;;;;;;;9.70;2.85;;;;;;;30.43;66.04;100479.28;5021099;28;69954;-43
2022/05/22 12:47:14;;;;;;;7.07;2.90;;;;;;;30.47;63.70;100480.47;5016345;28;65549;-45
2022/05/22 12:49:58;;;;;;;10.23;3.13;;;;;;;30.37;63.39;100477.47;5019282;28;70604;-45
2022/05/22 12:52:33;;;;;;;3.63;2.42;;;;;;;30.48;63.94;100492.97;5017035;28;65285;-43
2022/05/22 12:55:30;;;;;;;12.05;3.13;;;;;;;30.30;62.03;100484.84;5019330;28;70455;-45